Arjay, KY

7:47 PM EST on January 29, 2015 (GMT -0500)
Middlesboro | Change Station
CLOSE
Current Station
Airport
Location: Middlesboro,
Elevation: 1155 ft
Nearby Weather Stations
Active Advisory: Special Statement

Elev 1155 ft 36.61 °N, 83.74 °W | Updated 12 minutes ago

Overcast
Overcast
50 °F
Feels Like 50 °F
N
17
Wind Variable Wind from NW
Gusts 21 mph

Today
High -- | Low -- °F
--% Chance of Precip.
Yesterday
High -- | Low -- °F
Precip. -- in
7:39 AM 5:56 PM
Waxing Gibbous, 78% visible
Pressure 30.07 in
Visibility 10.0 miles
Clouds Scattered Clouds 2900 ft
Scattered Clouds 3600 ft
Overcast 4800 ft
Dew Point 40 °F
Humidity 69%
Rainfall 0.02 in
Snow Depth Not available.
UV 0 out of 12
Pollen .10 out of 12
Air Quality Not available.
Flu Activity Not available.
METAR K1A6 300035Z AUTO 32015G18KT 10SM SCT029 SCT036 OVC048 10/05 A3007 RMK AO2 T00990045

More Conditions Fewer Conditions

Pressure 30.07 in
Visibility 10.0 miles
Clouds Scattered Clouds 2900 ft
Scattered Clouds 3600 ft
Overcast 4800 ft
Dew Point 40 °F
Humidity 69%
Rainfall 0.02 in
Snow Depth Not available.
UV 0 out of 12
Pollen .10 out of 12
Air Quality Not available.
Flu Activity Not available.
METAR K1A6 300035Z AUTO 32015G18KT 10SM SCT029 SCT036 OVC048 10/05 A3007 RMK AO2 T00990045

More Conditions Fewer Conditions

10-Day Weather Forecast

Almanac

Astronomy

Jan. 29, 2015 Rise Set
Actual Time
Civil Twilight
Nautical Twilight
Astronomical Twilight
Moon
Length of Visible Light
Length of Day
Tomorrow will be .
, % of the Moon is Illuminated

Today's Extremes

State Highs State Lows

Community

WunderPhotos

Upload Photos

1,791,657 photos uploaded!

WunderBlogs® & News

Nearby

Air Quality

  Air Quality AQ Index Pollutant
Not available.

Snow Depth

Station Depth Elevation

Earthquake Activity

City Distance Mag. Time & Date
Minimum magnitude displayed is 2.5.

Coastal Water Temperatures

Place Temperature

Nearby Weather Stations